Date,TemperatureHighF,TemperatureAvgF,TemperatureLowF,DewpointHighF,DewpointAvgF,DewpointLowF,HumidityHigh,HumidityAvg,HumidityLow,PressureMaxIn,PressureMinIn,WindSpeedMaxMPH,WindSpeedAvgMPH,GustSpeedMaxMPH,PrecipitationSumIn
2013-1-1,38,34,26,33,26,16,92,74,59,30.03,29.88,21,5,21,0.01
2013-1-2,77,27,24,19,17,0,72,67,60,30.20,30.00,26,4,26,0.00
2013-1-3,34,26,18,24,17,14,88,69,53,30.20,30.07,20,4,22,0.00
2013-1-4,36,33,30,26,23,20,82,67,60,30.10,29.99,31,11,33,0.00
2013-1-5,38,32,29,26,24,20,84,70,60,30.35,30.07,24,6,25,0.00
2013-1-6,41,34,29,32,27,25,87,78,60,30.18,29.97,16,3,17,0.00
2013-1-7,39,38,31,32,31,26,83,75,72,30.37,30.09,21,6,22,0.00
2013-1-8,46,34,24,31,28,23,99,80,53,30.38,30.32,12,2,13,0.00
2013-1-9,45,32,25,38,29,24,98,92,61,30.37,30.14,20,3,22,0.00
2013-1-10,46,40,35,31,29,27,83,64,52,30.56,30.30,19,5,19,0.00
2013-1-11,44,39,34,40,34,28,100,83,61,30.49,30.09,17,3,17,0.29
2013-1-12,45,41,38,45,41,38,100,100,100,30.17,30.09,10,2,10,0.00
2013-1-13,78,44,40,52,43,0,100,100,97,30.12,29.96,11,3,11,0.00
2013-1-14,51,47,38,51,40,28,100,78,52,30.31,29.90,22,7,27,0.11
2013-1-15,38,35,31,31,27,25,97,72,64,30.37,30.18,12,4,13,0.01
2013-1-16,80,32,30,35,32,0,100,100,98,30.18,29.87,11,4,12,0.32
2013-1-17,39,36,33,35,32,29,100,85,73,30.11,29.94,21,4,22,0.00
2013-1-18,33,27,22,30,15,8,90,61,45,30.44,30.00,29,7,29,0.00
2013-1-19,51,40,26,30,23,14,81,53,36,30.31,29.82,28,6,30,0.00
2013-1-20,78,41,25,31,24,0,60,49,32,30.08,29.69,44,12,46,0.00
2013-1-21,28,25,21,26,16,8,99,70,56,30.08,29.86,21,5,24,0.00
2013-1-22,21,14,9,9,1,-5,76,57,43,30.21,29.89,40,11,43,0.00
2013-1-23,79,11,8,7,2,-2,77,65,47,30.24,30.12,32,5,32,0.00
2013-1-24,23,16,10,11,6,0,93,66,39,30.46,30.08,34,7,34,0.00
2013-1-25,19,15,11,16,9,2,94,77,60,30.46,30.03,14,3,14,0.00
2013-1-26,26,19,13,16,12,8,95,74,53,30.38,30.05,18,4,20,0.03
2013-1-27,78,19,12,19,13,0,91,78,51,30.55,30.38,18,2,19,0.00
2013-1-28,35,30,23,35,28,17,100,94,78,30.45,30.01,11,3,11,0.32
2013-1-29,46,39,34,45,39,34,100,100,97,30.12,29.96,16,2,17,0.03
2013-1-30,79,48,39,60,48,0,100,99,85,29.96,29.22,36,5,36,0.62
2013-1-31,56,37,26,56,28,13,100,70,46,29.79,29.09,52,15,52,0.44
2013-2-1,27,24,19,23,13,7,92,63,47,30.27,29.76,45,12,49,0.00
2013-2-2,23,19,14,21,11,6,98,71,55,30.28,29.99,22,6,23,0.00
2013-2-3,77,24,21,26,21,0,100,91,64,29.99,29.77,30,4,31,0.00
2013-2-4,29,24,20,25,14,8,96,66,51,30.00,29.88,34,8,34,0.00
2013-2-5,33,29,25,31,27,24,99,93,83,29.93,29.83,10,3,11,0.02
2013-2-6,37,31,26,31,24,13,100,79,43,30.33,29.90,27,6,28,0.00
2013-2-7,35,29,21,22,18,14,84,64,48,30.44,30.22,23,5,23,0.00
2013-2-8,40,35,28,36,32,22,100,90,67,30.23,29.74,38,6,39,0.22
2013-2-9,30,24,21,25,17,15,92,74,60,30.39,29.88,34,12,34,0.00
2013-2-10,39,23,11,22,15,10,98,74,36,30.46,30.18,19,3,21,0.00
2013-2-11,44,39,35,42,35,19,100,87,45,30.19,29.66,39,6,39,0.07
2013-2-12,41,38,32,29,26,24,78,63,57,30.00,29.77,34,10,39,0.00
2013-2-13,43,32,25,34,27,24,100,82,60,29.95,29.68,14,2,15,0.05
2013-2-14,43,36,30,35,31,27,100,83,62,29.97,29.74,16,5,16,0.00
2013-2-15,47,41,35,36,30,25,99,68,46,29.99,29.90,28,7,30,0.05
2013-2-16,36,32,27,36,22,12,100,67,47,29.99,29.83,19,6,19,0.00
2013-2-17,28,24,18,16,11,2,73,57,38,30.12,29.80,47,10,47,0.00
2013-2-18,36,26,16,15,10,6,67,53,37,30.29,30.09,25,7,25,0.00
2013-2-19,39,35,29,38,28,14,100,78,40,30.09,29.67,36,6,36,0.20
2013-2-20,31,27,23,24,16,12,74,63,55,30.06,29.79,38,13,38,0.00
2013-2-21,34,27,23,19,16,14,77,64,51,30.34,30.03,35,11,35,0.00
2013-2-22,35,29,22,28,22,17,86,75,63,30.37,30.18,17,5,17,0.00
2013-2-23,41,37,34,40,35,28,100,95,77,30.19,29.83,12,4,13,0.01
2013-2-24,39,36,32,37,32,20,100,88,54,30.05,29.80,28,6,30,0.00
2013-2-25,45,36,30,29,26,22,78,66,47,30.22,30.05,19,5,19,0.00
2013-2-26,43,35,28,36,30,25,98,82,58,30.23,29.74,29,7,31,0.28
2013-2-27,43,39,36,42,38,36,100,97,87,29.75,29.53,26,8,31,0.29
2013-2-28,43,38,35,39,35,29,100,89,60,29.67,29.57,22,5,22,0.03
2013-3-1,40,37,33,35,30,23,92,76,61,29.86,29.66,23,7,24,0.00
2013-3-2,35,32,29,25,23,21,79,70,59,29.86,29.77,22,8,22,0.00
2013-3-3,34,29,26,22,20,17,79,69,55,29.85,29.75,31,11,31,0.00
2013-3-4,36,30,26,24,20,15,79,66,56,30.01,29.84,35,13,35,0.00
2013-3-5,42,34,30,28,25,22,78,68,53,30.06,29.89,19,6,20,0.00
2013-3-6,45,38,36,32,29,27,74,68,56,30.02,29.81,34,9,34,0.00
2013-3-7,42,38,33,28,25,22,66,59,49,30.16,30.02,28,8,28,0.00
2013-3-8,43,36,30,27,24,22,84,63,51,30.32,30.13,37,9,39,0.00
2013-3-9,58,42,28,28,25,22,86,54,26,30.36,30.24,11,3,11,0.00
2013-3-10,60,43,32,32,26,23,77,55,28,30.29,30.17,24,5,24,0.00
2013-3-11,58,51,42,50,38,28,83,63,36,30.20,29.86,36,8,42,0.00
2013-3-12,56,50,41,54,45,30,99,84,66,29.93,29.74,37,11,37,0.43
2013-3-13,44,39,31,32,28,16,87,66,41,29.97,29.82,41,7,43,0.00
2013-3-14,39,32,27,22,15,10,74,51,32,30.04,29.93,45,15,50,0.00
2013-3-15,46,37,26,32,24,14,71,60,51,30.04,29.72,29,7,33,0.00
2013-3-16,41,34,30,33,28,21,100,83,58,29.93,29.73,22,4,23,0.18
2013-3-17,32,31,30,31,29,27,97,93,90,29.97,29.92,9,3,9,0.00
2013-3-20,42,36,31,22,20,15,69,53,36,29.89,29.77,35,10,40,0.00
2013-3-21,33,29,25,22,16,10,69,57,41,29.83,29.69,27,8,29,0.00
2013-3-22,38,32,27,24,21,18,84,65,48,29.94,29.76,35,11,36,0.00
2013-3-23,43,36,31,23,21,18,70,56,40,29.98,29.89,33,10,33,0.00
2013-3-24,46,37,31,24,22,18,69,55,34,29.97,29.63,19,4,19,0.00
2013-3-25,39,36,33,36,32,23,100,85,53,29.67,29.52,19,6,20,0.12
2013-3-26,49,40,35,36,32,27,100,74,46,29.94,29.66,39,6,40,0.00
2013-3-27,47,40,36,35,31,25,85,72,44,30.04,29.91,35,8,38,0.00
2013-3-28,46,41,36,34,30,26,88,66,46,30.18,30.01,23,6,24,0.00
2013-3-29,48,42,39,34,30,27,74,63,53,30.20,30.12,25,8,25,0.00
2013-3-31,52,44,34,47,38,25,100,81,47,30.04,29.70,31,4,31,0.16
2013-4-1,51,44,34,46,32,12,100,68,28,29.95,29.67,40,11,41,0.02
2013-4-2,41,34,30,19,14,11,63,44,31,30.12,29.94,35,10,37,0.00
2013-4-3,42,34,30,19,14,10,59,45,30,30.36,30.10,37,9,37,0.00
2013-4-4,53,40,27,22,18,15,69,43,26,30.39,30.00,22,5,24,0.00
2013-4-5,58,46,35,26,21,16,64,40,22,30.08,29.81,37,8,37,0.00
2013-4-6,53,42,32,23,17,12,58,38,20,30.32,30.06,18,6,19,0.00
2013-4-7,64,51,43,43,30,18,59,44,32,30.21,29.91,29,9,31,0.00
2013-4-8,75,62,44,50,44,38,88,54,30,30.09,29.91,22,5,22,0.00
2013-4-9,81,71,61,52,46,38,66,44,26,30.04,29.86,32,8,32,0.00
2013-4-10,83,70,61,64,55,51,98,61,43,29.94,29.78,46,6,47,0.49
2013-4-11,62,54,50,61,51,46,100,90,80,29.96,29.80,20,7,23,0.00
2013-4-12,50,47,44,48,45,42,98,93,87,29.89,29.66,26,6,26,0.38
2013-4-13,53,48,44,48,37,33,98,65,50,29.97,29.80,27,6,30,0.00
2013-4-14,58,48,41,37,33,26,71,56,37,30.16,29.95,35,7,37,0.00
2013-4-15,66,55,47,48,39,31,71,56,49,30.27,30.14,24,6,26,0.00
2013-4-16,58,55,54,52,48,44,82,76,67,30.27,30.21,27,7,27,0.00
2013-4-18,63,60,58,58,53,37,90,78,43,30.22,29.96,27,8,27,0.00
2013-4-19,74,64,51,66,58,44,97,81,69,29.99,29.52,47,12,50,0.61
2013-4-20,52,47,39,45,30,21,81,54,37,30.40,29.76,37,12,37,0.00
2013-4-21,53,40,33,28,22,20,67,49,31,30.59,30.37,16,4,26,0.00
2013-4-22,57,48,39,34,30,22,79,51,31,30.59,30.42,22,6,25,0.00
2013-4-23,63,50,41,45,38,31,78,64,40,30.44,30.08,18,5,18,0.00
2013-4-24,72,53,43,61,46,35,98,81,48,30.09,29.73,47,5,48,0.29
2013-4-25,60,50,42,41,32,26,74,52,31,30.29,30.02,30,8,32,0.00
2013-4-26,62,53,44,38,30,22,76,45,22,30.45,30.27,21,6,22,0.00
2013-4-27,71,56,40,42,34,27,81,46,24,30.43,30.25,13,3,14,0.00
2013-4-28,69,55,45,47,41,34,83,62,31,30.27,30.13,28,5,30,0.00
2013-4-29,59,56,52,56,49,36,94,79,47,30.15,30.07,20,6,22,0.03
2013-4-30,69,60,55,54,50,28,96,72,42,30.33,30.14,22,6,22,0.00
2013-5-1,73,58,46,42,31,25,66,38,18,30.44,30.31,17,4,17,0.00
2013-5-2,75,62,46,48,43,38,90,53,28,30.45,30.30,24,4,25,0.00
2013-5-3,72,61,52,48,40,27,82,48,22,30.40,30.27,21,6,22,0.00
2013-5-4,57,49,44,41,38,35,83,67,45,30.34,30.29,6,2,7,0.00
2013-5-6,73,68,62,54,51,45,74,56,44,30.19,30.08,20,5,20,0.00
2013-5-7,76,66,54,59,53,48,94,68,41,30.13,30.01,30,6,30,0.00
2013-5-8,64,62,54,62,58,54,100,89,79,30.06,29.91,19,5,19,0.56
2013-5-9,68,60,52,60,56,52,100,89,63,29.99,29.90,19,4,20,0.00
2013-5-10,77,65,56,63,59,53,100,85,48,30.02,29.84,31,4,31,0.15
2013-5-11,69,64,60,65,60,50,100,87,62,29.88,29.71,30,7,30,0.28
2013-5-12,60,54,45,53,41,26,85,62,32,29.98,29.73,46,10,46,0.00
2013-5-13,53,46,41,34,28,23,69,51,34,30.14,29.96,29,8,29,0.00
2013-5-14,61,49,35,40,30,21,86,51,25,30.18,30.01,24,5,24,0.00
2013-5-15,75,58,51,60,47,40,83,66,55,30.04,29.66,23,5,24,0.00
2013-5-16,83,70,57,63,50,37,100,58,20,29.95,29.75,25,6,25,0.00
2013-5-17,73,64,54,44,41,36,64,45,29,30.21,29.93,18,5,18,0.00
2013-5-18,68,62,57,57,49,43,79,63,51,30.25,30.19,16,5,18,0.00
2013-5-19,65,61,60,61,58,54,93,87,79,30.24,30.13,18,5,18,0.00
2013-5-20,80,70,61,67,63,59,95,81,61,30.14,29.97,15,4,16,0.00
2013-5-21,89,77,63,71,67,62,100,74,45,29.99,29.82,23,5,23,0.00
2013-5-22,90,77,67,72,68,59,100,77,38,29.95,29.80,43,5,43,0.22
2013-5-23,77,69,62,68,65,59,100,87,67,29.89,29.74,27,5,28,0.44
2013-5-24,63,51,44,63,47,39,100,87,66,30.11,29.72,30,9,32,0.12
2013-5-25,60,51,44,41,36,31,81,57,36,30.11,30.04,40,12,42,0.00
2013-5-26,68,53,46,38,36,31,71,54,26,30.24,30.07,33,8,36,0.00
2013-5-27,71,58,42,47,40,28,93,55,25,30.28,30.14,17,4,17,0.00
2013-5-28,61,57,53,61,55,46,100,92,60,30.20,30.07,12,3,12,0.26
2013-5-29,87,68,59,69,62,59,100,86,45,30.10,30.02,23,4,24,0.06
2013-5-30,89,78,63,68,64,58,98,66,40,30.18,30.09,18,4,18,0.00
2013-5-31,92,79,67,71,65,56,97,65,35,30.15,30.00,21,4,21,0.00
2013-6-1,90,80,66,68,65,61,91,63,43,30.03,29.88,24,5,24,0.00
2013-6-2,84,78,74,68,67,62,81,68,49,29.89,29.79,31,7,31,0.00
2013-6-3,77,71,61,68,59,44,85,66,51,30.00,29.83,20,6,22,0.00
2013-6-4,74,63,52,48,43,39,74,50,29,30.15,29.98,20,6,22,0.00
2013-6-5,78,62,51,51,45,41,76,56,32,30.23,30.06,16,4,16,0.00
2013-6-6,68,64,61,61,55,47,94,74,49,30.09,29.88,25,6,25,0.20
2013-6-7,66,64,62,64,62,60,100,95,82,29.90,29.70,22,5,22,0.15
2013-6-8,74,66,62,63,61,57,100,84,59,30.12,29.72,19,5,19,0.00
2013-6-9,81,65,54,61,57,52,100,78,39,30.21,30.10,14,3,15,0.00
2013-6-10,70,67,64,68,65,59,100,93,72,30.14,29.75,21,6,21,1.88
2013-6-11,76,70,65,69,65,60,100,87,66,29.82,29.71,33,7,33,0.06
2013-6-12,80,69,64,62,59,54,89,74,43,29.89,29.80,20,4,20,0.00
2013-6-13,76,67,59,70,63,57,100,88,68,29.83,29.45,37,7,39,0.81
2013-6-14,73,62,58,58,56,53,99,83,53,29.86,29.65,24,6,24,0.00
2013-6-16,79,71,60,66,62,53,95,73,55,30.00,29.82,30,6,30,0.00
2013-6-17,86,74,66,67,62,53,96,69,35,29.95,29.87,22,5,24,0.00
2013-6-18,79,70,62,67,62,57,94,78,59,29.95,29.84,18,4,18,0.00
2013-6-19,76,65,58,59,52,42,83,65,34,30.19,29.95,15,4,16,0.00
2013-6-20,81,69,54,62,55,50,93,64,39,30.27,30.18,17,5,17,0.00
2013-6-21,83,74,61,63,60,56,94,63,47,30.31,30.23,18,5,19,0.00
2013-6-22,85,75,62,68,63,56,92,68,50,30.25,30.11,22,5,22,0.00
2013-6-23,89,77,69,71,68,58,94,74,37,30.20,30.06,19,4,19,0.00
2013-6-24,88,76,69,73,68,64,97,77,55,30.14,30.02,36,4,36,0.28
2013-6-25,88,76,67,73,69,66,99,81,52,30.04,29.88,38,5,38,0.16
2013-6-26,81,71,67,70,68,66,99,90,65,29.92,29.83,11,4,12,0.00
2013-6-27,85,73,66,73,69,66,100,89,55,29.85,29.55,19,3,20,0.98
2013-6-28,81,72,68,70,68,66,100,89,63,29.66,29.49,14,4,16,0.00